sensor_id;sensor_type;location;lat;lon;timestamp;P1;durP1;ratioP1;P2;durP2;ratioP2
15077;SDS011;7638;49.760;8.646;2023-06-14T00:00:39;4.37;;;3.37;;
15077;SDS011;7638;49.760;8.646;2023-06-14T00:03:09;3.70;;;3.33;;
15077;SDS011;7638;49.760;8.646;2023-06-14T00:05:36;5.50;;;3.03;;
15077;SDS011;7638;49.760;8.646;2023-06-14T00:08:08;6.17;;;3.40;;
15077;SDS011;7638;49.760;8.646;2023-06-14T00:10:34;7.40;;;3.50;;
15077;SDS011;7638;49.760;8.646;2023-06-14T00:13:01;5.30;;;3.20;;
15077;SDS011;7638;49.760;8.646;2023-06-14T00:15:27;5.03;;;3.03;;
15077;SDS011;7638;49.760;8.646;2023-06-14T00:17:53;4.17;;;3.00;;
15077;SDS011;7638;49.760;8.646;2023-06-14T00:20:20;6.70;;;3.47;;
15077;SDS011;7638;49.760;8.646;2023-06-14T00:22:46;3.63;;;3.33;;
15077;SDS011;7638;49.760;8.646;2023-06-14T00:25:13;4.10;;;3.53;;
15077;SDS011;7638;49.760;8.646;2023-06-14T00:27:39;5.57;;;3.77;;
15077;SDS011;7638;49.760;8.646;2023-06-14T00:30:05;7.40;;;3.17;;
15077;SDS011;7638;49.760;8.646;2023-06-14T00:32:31;5.93;;;3.50;;
15077;SDS011;7638;49.760;8.646;2023-06-14T00:34:57;4.83;;;3.53;;
15077;SDS011;7638;49.760;8.646;2023-06-14T00:37:23;4.43;;;3.30;;
15077;SDS011;7638;49.760;8.646;2023-06-14T00:39:49;4.87;;;3.37;;
15077;SDS011;7638;49.760;8.646;2023-06-14T00:42:24;5.57;;;3.50;;
15077;SDS011;7638;49.760;8.646;2023-06-14T00:44:50;3.83;;;3.23;;
15077;SDS011;7638;49.760;8.646;2023-06-14T00:47:17;5.43;;;3.77;;
15077;SDS011;7638;49.760;8.646;2023-06-14T00:49:44;9.73;;;3.67;;
15077;SDS011;7638;49.760;8.646;2023-06-14T00:52:11;5.97;;;3.47;;
15077;SDS011;7638;49.760;8.646;2023-06-14T00:54:37;5.73;;;3.17;;
15077;SDS011;7638;49.760;8.646;2023-06-14T00:57:03;4.93;;;3.27;;
15077;SDS011;7638;49.760;8.646;2023-06-14T00:59:30;4.20;;;3.30;;
15077;SDS011;7638;49.760;8.646;2023-06-14T01:01:56;6.67;;;3.37;;
15077;SDS011;7638;49.760;8.646;2023-06-14T01:04:22;10.17;;;3.03;;
15077;SDS011;7638;49.760;8.646;2023-06-14T01:06:54;3.03;;;2.73;;
15077;SDS011;7638;49.760;8.646;2023-06-14T01:09:41;4.10;;;3.00;;
15077;SDS011;7638;49.760;8.646;2023-06-14T01:12:13;6.43;;;3.67;;
15077;SDS011;7638;49.760;8.646;2023-06-14T01:14:41;5.50;;;3.57;;
15077;SDS011;7638;49.760;8.646;2023-06-14T01:17:08;5.53;;;3.20;;
15077;SDS011;7638;49.760;8.646;2023-06-14T01:19:42;4.47;;;3.20;;
15077;SDS011;7638;49.760;8.646;2023-06-14T01:22:08;6.30;;;3.90;;
15077;SDS011;7638;49.760;8.646;2023-06-14T01:24:34;5.60;;;3.80;;
15077;SDS011;7638;49.760;8.646;2023-06-14T01:27:00;4.47;;;3.50;;
15077;SDS011;7638;49.760;8.646;2023-06-14T01:29:27;6.37;;;3.50;;
15077;SDS011;7638;49.760;8.646;2023-06-14T01:31:57;4.20;;;3.30;;
15077;SDS011;7638;49.760;8.646;2023-06-14T01:34:23;4.40;;;3.40;;
15077;SDS011;7638;49.760;8.646;2023-06-14T01:36:49;5.47;;;3.30;;
15077;SDS011;7638;49.760;8.646;2023-06-14T01:39:16;5.93;;;4.00;;
15077;SDS011;7638;49.760;8.646;2023-06-14T01:41:43;6.27;;;3.40;;
15077;SDS011;7638;49.760;8.646;2023-06-14T01:44:11;3.80;;;3.20;;
15077;SDS011;7638;49.760;8.646;2023-06-14T01:46:38;4.03;;;3.17;;
15077;SDS011;7638;49.760;8.646;2023-06-14T01:49:04;6.87;;;4.17;;
15077;SDS011;7638;49.760;8.646;2023-06-14T01:51:30;4.47;;;3.67;;
15077;SDS011;7638;49.760;8.646;2023-06-14T01:53:56;5.83;;;3.60;;
15077;SDS011;7638;49.760;8.646;2023-06-14T01:56:22;4.93;;;3.77;;
15077;SDS011;7638;49.760;8.646;2023-06-14T01:58:48;3.87;;;2.83;;
15077;SDS011;7638;49.760;8.646;2023-06-14T02:01:15;4.87;;;3.43;;
15077;SDS011;7638;49.760;8.646;2023-06-14T02:03:41;6.80;;;3.00;;
15077;SDS011;7638;49.760;8.646;2023-06-14T02:06:09;4.20;;;3.60;;
15077;SDS011;7638;49.760;8.646;2023-06-14T02:08:35;5.33;;;3.47;;
15077;SDS011;7638;49.760;8.646;2023-06-14T02:11:02;5.70;;;2.90;;
15077;SDS011;7638;49.760;8.646;2023-06-14T02:13:27;6.20;;;3.57;;
15077;SDS011;7638;49.760;8.646;2023-06-14T02:15:53;7.03;;;3.50;;
15077;SDS011;7638;49.760;8.646;2023-06-14T02:18:20;9.47;;;3.80;;
15077;SDS011;7638;49.760;8.646;2023-06-14T02:20:46;6.17;;;3.77;;
15077;SDS011;7638;49.760;8.646;2023-06-14T02:23:12;5.03;;;3.50;;
15077;SDS011;7638;49.760;8.646;2023-06-14T02:25:38;6.43;;;2.87;;
15077;SDS011;7638;49.760;8.646;2023-06-14T02:28:05;8.57;;;3.27;;
15077;SDS011;7638;49.760;8.646;2023-06-14T02:30:31;4.90;;;3.90;;
15077;SDS011;7638;49.760;8.646;2023-06-14T02:32:57;4.27;;;3.20;;
15077;SDS011;7638;49.760;8.646;2023-06-14T02:35:24;6.27;;;3.67;;
15077;SDS011;7638;49.760;8.646;2023-06-14T02:37:51;3.70;;;3.10;;
15077;SDS011;7638;49.760;8.646;2023-06-14T02:40:17;4.23;;;2.80;;
15077;SDS011;7638;49.760;8.646;2023-06-14T02:42:43;4.23;;;3.20;;
15077;SDS011;7638;49.760;8.646;2023-06-14T02:45:09;6.13;;;3.93;;
15077;SDS011;7638;49.760;8.646;2023-06-14T02:47:35;5.30;;;3.37;;
15077;SDS011;7638;49.760;8.646;2023-06-14T02:50:02;5.47;;;3.70;;
15077;SDS011;7638;49.760;8.646;2023-06-14T02:52:28;5.93;;;3.50;;
15077;SDS011;7638;49.760;8.646;2023-06-14T02:54:54;6.20;;;3.50;;
15077;SDS011;7638;49.760;8.646;2023-06-14T02:57:21;4.60;;;3.53;;
15077;SDS011;7638;49.760;8.646;2023-06-14T02:59:48;7.27;;;3.63;;
15077;SDS011;7638;49.760;8.646;2023-06-14T03:02:14;5.77;;;3.50;;
15077;SDS011;7638;49.760;8.646;2023-06-14T03:04:40;6.10;;;3.10;;
15077;SDS011;7638;49.760;8.646;2023-06-14T03:07:09;6.60;;;3.17;;
15077;SDS011;7638;49.760;8.646;2023-06-14T03:09:36;6.53;;;3.83;;
15077;SDS011;7638;49.760;8.646;2023-06-14T03:12:02;3.37;;;2.70;;
15077;SDS011;7638;49.760;8.646;2023-06-14T03:14:29;4.63;;;3.43;;
15077;SDS011;7638;49.760;8.646;2023-06-14T03:16:58;8.93;;;4.17;;
15077;SDS011;7638;49.760;8.646;2023-06-14T03:19:25;3.80;;;3.40;;
15077;SDS011;7638;49.760;8.646;2023-06-14T03:21:52;4.70;;;3.60;;
15077;SDS011;7638;49.760;8.646;2023-06-14T03:24:18;8.13;;;3.53;;
15077;SDS011;7638;49.760;8.646;2023-06-14T03:26:45;5.47;;;3.83;;
15077;SDS011;7638;49.760;8.646;2023-06-14T03:29:11;4.67;;;3.40;;
15077;SDS011;7638;49.760;8.646;2023-06-14T03:31:40;8.63;;;4.10;;
15077;SDS011;7638;49.760;8.646;2023-06-14T03:34:21;5.63;;;4.70;;
15077;SDS011;7638;49.760;8.646;2023-06-14T03:36:47;6.33;;;4.47;;
15077;SDS011;7638;49.760;8.646;2023-06-14T03:39:14;5.03;;;3.70;;
15077;SDS011;7638;49.760;8.646;2023-06-14T03:41:40;5.90;;;3.83;;
15077;SDS011;7638;49.760;8.646;2023-06-14T03:44:06;6.30;;;3.47;;
15077;SDS011;7638;49.760;8.646;2023-06-14T03:46:32;6.97;;;4.10;;
15077;SDS011;7638;49.760;8.646;2023-06-14T03:48:58;4.07;;;3.57;;
15077;SDS011;7638;49.760;8.646;2023-06-14T03:51:25;5.47;;;4.03;;
15077;SDS011;7638;49.760;8.646;2023-06-14T03:53:51;5.00;;;3.70;;
15077;SDS011;7638;49.760;8.646;2023-06-14T03:56:17;4.33;;;3.80;;
15077;SDS011;7638;49.760;8.646;2023-06-14T03:58:43;8.07;;;3.77;;
15077;SDS011;7638;49.760;8.646;2023-06-14T04:01:09;4.83;;;3.27;;
15077;SDS011;7638;49.760;8.646;2023-06-14T04:03:37;18.40;;;4.00;;
15077;SDS011;7638;49.760;8.646;2023-06-14T04:06:03;5.07;;;3.60;;
15077;SDS011;7638;49.760;8.646;2023-06-14T04:08:30;6.13;;;4.00;;
15077;SDS011;7638;49.760;8.646;2023-06-14T04:10:56;4.60;;;3.70;;
15077;SDS011;7638;49.760;8.646;2023-06-14T04:13:22;5.40;;;3.53;;
15077;SDS011;7638;49.760;8.646;2023-06-14T04:15:48;5.90;;;4.03;;
15077;SDS011;7638;49.760;8.646;2023-06-14T04:18:14;6.77;;;3.53;;
15077;SDS011;7638;49.760;8.646;2023-06-14T04:20:40;6.20;;;3.30;;
15077;SDS011;7638;49.760;8.646;2023-06-14T04:23:13;9.27;;;4.20;;
15077;SDS011;7638;49.760;8.646;2023-06-14T04:25:40;4.03;;;3.27;;
15077;SDS011;7638;49.760;8.646;2023-06-14T04:28:09;5.50;;;3.73;;
15077;SDS011;7638;49.760;8.646;2023-06-14T04:30:36;5.60;;;3.80;;
15077;SDS011;7638;49.760;8.646;2023-06-14T04:33:03;4.33;;;3.63;;
15077;SDS011;7638;49.760;8.646;2023-06-14T04:35:31;8.27;;;4.60;;
15077;SDS011;7638;49.760;8.646;2023-06-14T04:38:01;9.13;;;4.87;;
15077;SDS011;7638;49.760;8.646;2023-06-14T04:40:29;4.70;;;3.60;;
15077;SDS011;7638;49.760;8.646;2023-06-14T04:42:55;9.53;;;4.10;;
15077;SDS011;7638;49.760;8.646;2023-06-14T04:45:22;5.80;;;4.10;;
15077;SDS011;7638;49.760;8.646;2023-06-14T04:47:49;5.80;;;3.90;;
15077;SDS011;7638;49.760;8.646;2023-06-14T04:50:16;9.53;;;3.83;;
15077;SDS011;7638;49.760;8.646;2023-06-14T04:52:43;5.17;;;3.73;;
15077;SDS011;7638;49.760;8.646;2023-06-14T04:55:09;4.93;;;3.57;;
15077;SDS011;7638;49.760;8.646;2023-06-14T04:57:35;4.67;;;3.70;;
15077;SDS011;7638;49.760;8.646;2023-06-14T05:00:03;13.00;;;4.60;;
15077;SDS011;7638;49.760;8.646;2023-06-14T05:02:30;6.20;;;3.67;;
15077;SDS011;7638;49.760;8.646;2023-06-14T05:04:56;6.27;;;3.90;;
15077;SDS011;7638;49.760;8.646;2023-06-14T05:07:22;4.37;;;3.70;;
15077;SDS011;7638;49.760;8.646;2023-06-14T05:09:49;6.33;;;3.70;;
15077;SDS011;7638;49.760;8.646;2023-06-14T05:12:15;5.33;;;4.83;;
15077;SDS011;7638;49.760;8.646;2023-06-14T05:14:43;5.23;;;3.90;;
15077;SDS011;7638;49.760;8.646;2023-06-14T05:17:09;4.80;;;3.53;;
15077;SDS011;7638;49.760;8.646;2023-06-14T05:19:35;8.53;;;4.17;;
15077;SDS011;7638;49.760;8.646;2023-06-14T05:22:01;9.53;;;4.40;;
15077;SDS011;7638;49.760;8.646;2023-06-14T05:24:28;7.90;;;4.00;;
15077;SDS011;7638;49.760;8.646;2023-06-14T05:26:55;6.83;;;4.03;;
15077;SDS011;7638;49.760;8.646;2023-06-14T05:29:21;4.20;;;3.60;;
15077;SDS011;7638;49.760;8.646;2023-06-14T05:31:47;4.37;;;3.97;;
15077;SDS011;7638;49.760;8.646;2023-06-14T05:34:13;5.43;;;3.70;;
15077;SDS011;7638;49.760;8.646;2023-06-14T05:36:39;4.20;;;3.73;;
15077;SDS011;7638;49.760;8.646;2023-06-14T05:39:05;6.67;;;4.00;;
15077;SDS011;7638;49.760;8.646;2023-06-14T05:41:31;8.67;;;4.20;;
15077;SDS011;7638;49.760;8.646;2023-06-14T05:43:57;4.33;;;3.87;;
15077;SDS011;7638;49.760;8.646;2023-06-14T05:46:25;4.87;;;4.00;;
15077;SDS011;7638;49.760;8.646;2023-06-14T05:48:51;4.97;;;4.30;;
15077;SDS011;7638;49.760;8.646;2023-06-14T05:51:17;4.67;;;3.83;;
15077;SDS011;7638;49.760;8.646;2023-06-14T05:53:47;11.20;;;4.10;;
15077;SDS011;7638;49.760;8.646;2023-06-14T05:56:13;6.63;;;4.00;;
15077;SDS011;7638;49.760;8.646;2023-06-14T05:58:39;7.37;;;4.00;;
15077;SDS011;7638;49.760;8.646;2023-06-14T06:01:05;6.07;;;3.43;;
15077;SDS011;7638;49.760;8.646;2023-06-14T06:03:32;5.07;;;3.57;;
15077;SDS011;7638;49.760;8.646;2023-06-14T06:05:58;7.10;;;3.47;;
15077;SDS011;7638;49.760;8.646;2023-06-14T06:08:24;4.07;;;3.67;;
15077;SDS011;7638;49.760;8.646;2023-06-14T06:10:50;6.07;;;4.13;;
15077;SDS011;7638;49.760;8.646;2023-06-14T06:13:16;7.77;;;3.87;;
15077;SDS011;7638;49.760;8.646;2023-06-14T06:15:42;5.17;;;3.40;;
15077;SDS011;7638;49.760;8.646;2023-06-14T06:18:08;7.80;;;3.70;;
15077;SDS011;7638;49.760;8.646;2023-06-14T06:20:34;6.60;;;3.87;;
15077;SDS011;7638;49.760;8.646;2023-06-14T06:23:01;7.77;;;3.60;;
15077;SDS011;7638;49.760;8.646;2023-06-14T06:25:27;4.33;;;3.43;;
15077;SDS011;7638;49.760;8.646;2023-06-14T06:27:54;7.57;;;3.57;;
15077;SDS011;7638;49.760;8.646;2023-06-14T06:30:23;8.67;;;4.00;;
15077;SDS011;7638;49.760;8.646;2023-06-14T06:32:49;7.90;;;3.77;;
15077;SDS011;7638;49.760;8.646;2023-06-14T06:35:15;5.70;;;3.60;;
15077;SDS011;7638;49.760;8.646;2023-06-14T06:37:42;4.63;;;3.10;;
15077;SDS011;7638;49.760;8.646;2023-06-14T06:40:08;7.93;;;3.67;;
15077;SDS011;7638;49.760;8.646;2023-06-14T06:42:35;7.50;;;3.57;;
15077;SDS011;7638;49.760;8.646;2023-06-14T06:45:01;9.13;;;3.17;;
15077;SDS011;7638;49.760;8.646;2023-06-14T06:47:27;6.27;;;3.70;;
15077;SDS011;7638;49.760;8.646;2023-06-14T06:49:53;6.20;;;2.90;;
15077;SDS011;7638;49.760;8.646;2023-06-14T06:52:19;5.67;;;3.90;;
15077;SDS011;7638;49.760;8.646;2023-06-14T06:54:45;6.73;;;3.17;;
15077;SDS011;7638;49.760;8.646;2023-06-14T06:57:11;5.27;;;3.33;;
15077;SDS011;7638;49.760;8.646;2023-06-14T06:59:37;5.23;;;3.53;;
15077;SDS011;7638;49.760;8.646;2023-06-14T07:02:04;4.23;;;3.17;;
15077;SDS011;7638;49.760;8.646;2023-06-14T07:04:31;7.00;;;3.53;;
15077;SDS011;7638;49.760;8.646;2023-06-14T07:06:57;4.50;;;3.30;;
15077;SDS011;7638;49.760;8.646;2023-06-14T07:09:23;5.87;;;3.70;;
15077;SDS011;7638;49.760;8.646;2023-06-14T07:11:49;7.93;;;3.43;;
15077;SDS011;7638;49.760;8.646;2023-06-14T07:14:15;6.93;;;3.33;;
15077;SDS011;7638;49.760;8.646;2023-06-14T07:16:41;7.97;;;2.97;;
15077;SDS011;7638;49.760;8.646;2023-06-14T07:19:08;5.37;;;3.33;;
15077;SDS011;7638;49.760;8.646;2023-06-14T07:21:35;4.63;;;3.47;;
15077;SDS011;7638;49.760;8.646;2023-06-14T07:24:03;6.93;;;3.87;;
15077;SDS011;7638;49.760;8.646;2023-06-14T07:26:29;5.37;;;3.70;;
15077;SDS011;7638;49.760;8.646;2023-06-14T07:28:55;6.13;;;2.97;;
15077;SDS011;7638;49.760;8.646;2023-06-14T07:31:21;5.97;;;3.50;;
15077;SDS011;7638;49.760;8.646;2023-06-14T07:33:47;4.87;;;3.43;;
15077;SDS011;7638;49.760;8.646;2023-06-14T07:36:13;6.77;;;3.70;;
15077;SDS011;7638;49.760;8.646;2023-06-14T07:38:40;7.10;;;3.53;;
15077;SDS011;7638;49.760;8.646;2023-06-14T07:41:07;7.77;;;4.10;;
15077;SDS011;7638;49.760;8.646;2023-06-14T07:43:33;3.50;;;3.20;;
15077;SDS011;7638;49.760;8.646;2023-06-14T07:45:59;4.13;;;3.47;;
15077;SDS011;7638;49.760;8.646;2023-06-14T07:48:25;6.27;;;3.13;;
15077;SDS011;7638;49.760;8.646;2023-06-14T07:50:51;5.47;;;3.33;;
15077;SDS011;7638;49.760;8.646;2023-06-14T07:53:17;5.47;;;3.47;;
15077;SDS011;7638;49.760;8.646;2023-06-14T07:55:43;6.67;;;3.90;;
15077;SDS011;7638;49.760;8.646;2023-06-14T07:58:09;5.40;;;3.73;;
15077;SDS011;7638;49.760;8.646;2023-06-14T08:00:35;4.87;;;3.80;;
15077;SDS011;7638;49.760;8.646;2023-06-14T08:03:01;5.30;;;3.27;;
15077;SDS011;7638;49.760;8.646;2023-06-14T08:05:28;4.43;;;3.10;;
15077;SDS011;7638;49.760;8.646;2023-06-14T08:07:54;3.37;;;2.87;;
15077;SDS011;7638;49.760;8.646;2023-06-14T08:10:21;5.50;;;3.00;;
15077;SDS011;7638;49.760;8.646;2023-06-14T08:12:47;3.53;;;3.10;;
15077;SDS011;7638;49.760;8.646;2023-06-14T08:15:17;3.37;;;2.83;;
15077;SDS011;7638;49.760;8.646;2023-06-14T08:17:43;5.57;;;3.20;;
15077;SDS011;7638;49.760;8.646;2023-06-14T08:20:09;2.90;;;2.43;;
15077;SDS011;7638;49.760;8.646;2023-06-14T08:22:36;5.00;;;3.47;;
15077;SDS011;7638;49.760;8.646;2023-06-14T08:25:06;6.53;;;2.50;;
15077;SDS011;7638;49.760;8.646;2023-06-14T08:27:32;3.33;;;2.80;;
15077;SDS011;7638;49.760;8.646;2023-06-14T08:29:58;4.57;;;2.50;;
15077;SDS011;7638;49.760;8.646;2023-06-14T08:32:24;6.00;;;2.97;;
15077;SDS011;7638;49.760;8.646;2023-06-14T08:34:50;8.70;;;3.10;;
15077;SDS011;7638;49.760;8.646;2023-06-14T08:37:16;6.43;;;2.60;;
15077;SDS011;7638;49.760;8.646;2023-06-14T08:39:42;3.17;;;2.77;;
15077;SDS011;7638;49.760;8.646;2023-06-14T08:42:09;6.67;;;3.00;;
15077;SDS011;7638;49.760;8.646;2023-06-14T08:44:35;2.87;;;2.67;;
15077;SDS011;7638;49.760;8.646;2023-06-14T08:47:01;3.53;;;2.10;;
15077;SDS011;7638;49.760;8.646;2023-06-14T08:49:30;6.70;;;2.33;;
15077;SDS011;7638;49.760;8.646;2023-06-14T08:51:57;4.33;;;2.17;;
15077;SDS011;7638;49.760;8.646;2023-06-14T08:54:25;2.40;;;1.90;;
15077;SDS011;7638;49.760;8.646;2023-06-14T08:56:52;2.33;;;2.13;;
15077;SDS011;7638;49.760;8.646;2023-06-14T08:59:18;2.63;;;2.40;;
15077;SDS011;7638;49.760;8.646;2023-06-14T09:01:46;3.33;;;2.30;;
15077;SDS011;7638;49.760;8.646;2023-06-14T09:04:12;7.07;;;2.33;;
15077;SDS011;7638;49.760;8.646;2023-06-14T09:06:39;3.87;;;2.90;;
15077;SDS011;7638;49.760;8.646;2023-06-14T09:09:05;2.73;;;2.53;;
15077;SDS011;7638;49.760;8.646;2023-06-14T09:11:32;2.60;;;2.40;;
15077;SDS011;7638;49.760;8.646;2023-06-14T09:13:58;5.07;;;2.20;;
15077;SDS011;7638;49.760;8.646;2023-06-14T09:16:25;3.80;;;2.73;;
15077;SDS011;7638;49.760;8.646;2023-06-14T09:18:51;4.17;;;1.97;;
15077;SDS011;7638;49.760;8.646;2023-06-14T09:21:17;5.23;;;2.50;;
15077;SDS011;7638;49.760;8.646;2023-06-14T09:23:44;2.73;;;2.00;;
15077;SDS011;7638;49.760;8.646;2023-06-14T09:26:14;6.37;;;2.37;;
15077;SDS011;7638;49.760;8.646;2023-06-14T09:28:41;4.63;;;2.47;;
15077;SDS011;7638;49.760;8.646;2023-06-14T09:31:07;4.40;;;1.80;;
15077;SDS011;7638;49.760;8.646;2023-06-14T09:33:34;2.30;;;2.10;;
15077;SDS011;7638;49.760;8.646;2023-06-14T09:36:00;2.40;;;2.00;;
15077;SDS011;7638;49.760;8.646;2023-06-14T09:38:26;2.30;;;2.10;;
15077;SDS011;7638;49.760;8.646;2023-06-14T09:40:54;6.77;;;1.90;;
15077;SDS011;7638;49.760;8.646;2023-06-14T09:43:21;3.00;;;1.53;;
15077;SDS011;7638;49.760;8.646;2023-06-14T09:45:48;2.23;;;2.00;;
15077;SDS011;7638;49.760;8.646;2023-06-14T09:48:14;2.73;;;1.90;;
15077;SDS011;7638;49.760;8.646;2023-06-14T09:50:44;6.83;;;2.23;;
15077;SDS011;7638;49.760;8.646;2023-06-14T09:53:10;2.13;;;1.93;;
15077;SDS011;7638;49.760;8.646;2023-06-14T09:55:37;2.20;;;2.00;;
15077;SDS011;7638;49.760;8.646;2023-06-14T09:58:05;3.33;;;2.00;;
15077;SDS011;7638;49.760;8.646;2023-06-14T10:00:32;3.23;;;1.50;;
15077;SDS011;7638;49.760;8.646;2023-06-14T10:03:00;4.27;;;2.07;;
15077;SDS011;7638;49.760;8.646;2023-06-14T10:05:26;2.13;;;1.97;;
15077;SDS011;7638;49.760;8.646;2023-06-14T10:07:56;4.13;;;2.07;;
15077;SDS011;7638;49.760;8.646;2023-06-14T10:10:23;4.97;;;2.03;;
15077;SDS011;7638;49.760;8.646;2023-06-14T10:12:49;3.33;;;2.40;;
15077;SDS011;7638;49.760;8.646;2023-06-14T10:15:17;5.10;;;2.03;;
15077;SDS011;7638;49.760;8.646;2023-06-14T10:17:59;2.80;;;2.00;;
15077;SDS011;7638;49.760;8.646;2023-06-14T10:20:31;2.50;;;2.10;;
15077;SDS011;7638;49.760;8.646;2023-06-14T10:23:10;5.17;;;2.40;;
15077;SDS011;7638;49.760;8.646;2023-06-14T10:25:38;3.60;;;2.83;;
15077;SDS011;7638;49.760;8.646;2023-06-14T10:28:18;2.73;;;2.40;;
15077;SDS011;7638;49.760;8.646;2023-06-14T10:31:07;4.97;;;3.23;;
15077;SDS011;7638;49.760;8.646;2023-06-14T10:33:33;3.83;;;2.50;;
15077;SDS011;7638;49.760;8.646;2023-06-14T10:36:07;2.27;;;2.10;;
15077;SDS011;7638;49.760;8.646;2023-06-14T10:38:33;4.73;;;3.30;;
15077;SDS011;7638;49.760;8.646;2023-06-14T10:41:00;2.47;;;2.27;;
15077;SDS011;7638;49.760;8.646;2023-06-14T10:43:26;3.37;;;1.97;;
15077;SDS011;7638;49.760;8.646;2023-06-14T10:46:11;4.17;;;2.30;;
15077;SDS011;7638;49.760;8.646;2023-06-14T10:48:40;2.60;;;2.13;;
15077;SDS011;7638;49.760;8.646;2023-06-14T10:51:13;2.60;;;2.20;;
15077;SDS011;7638;49.760;8.646;2023-06-14T10:53:41;6.90;;;2.10;;
15077;SDS011;7638;49.760;8.646;2023-06-14T10:56:08;3.20;;;2.00;;
15077;SDS011;7638;49.760;8.646;2023-06-14T10:58:36;3.67;;;2.63;;
15077;SDS011;7638;49.760;8.646;2023-06-14T11:01:02;3.83;;;2.13;;
15077;SDS011;7638;49.760;8.646;2023-06-14T11:03:31;2.60;;;2.40;;
15077;SDS011;7638;49.760;8.646;2023-06-14T11:06:06;5.33;;;2.30;;
15077;SDS011;7638;49.760;8.646;2023-06-14T11:11:07;2.07;;;1.87;;
15077;SDS011;7638;49.760;8.646;2023-06-14T11:13:33;3.77;;;2.07;;
15077;SDS011;7638;49.760;8.646;2023-06-14T11:16:00;5.87;;;1.63;;
15077;SDS011;7638;49.760;8.646;2023-06-14T11:18:26;2.93;;;2.20;;
15077;SDS011;7638;49.760;8.646;2023-06-14T11:20:53;3.60;;;2.27;;
15077;SDS011;7638;49.760;8.646;2023-06-14T11:23:20;2.20;;;2.00;;
15077;SDS011;7638;49.760;8.646;2023-06-14T11:25:50;2.13;;;1.93;;
15077;SDS011;7638;49.760;8.646;2023-06-14T11:28:16;6.23;;;2.57;;
15077;SDS011;7638;49.760;8.646;2023-06-14T11:30:44;3.20;;;2.77;;
15077;SDS011;7638;49.760;8.646;2023-06-14T11:33:11;4.37;;;2.63;;
15077;SDS011;7638;49.760;8.646;2023-06-14T11:35:37;6.30;;;2.37;;
15077;SDS011;7638;49.760;8.646;2023-06-14T11:38:03;5.57;;;2.57;;
15077;SDS011;7638;49.760;8.646;2023-06-14T11:40:29;7.10;;;2.33;;
15077;SDS011;7638;49.760;8.646;2023-06-14T11:42:59;3.60;;;2.27;;
15077;SDS011;7638;49.760;8.646;2023-06-14T11:45:25;2.10;;;1.90;;
15077;SDS011;7638;49.760;8.646;2023-06-14T11:47:53;6.57;;;2.80;;
15077;SDS011;7638;49.760;8.646;2023-06-14T11:50:21;7.97;;;2.13;;
15077;SDS011;7638;49.760;8.646;2023-06-14T11:52:56;4.77;;;2.57;;
15077;SDS011;7638;49.760;8.646;2023-06-14T11:55:24;2.40;;;2.20;;
15077;SDS011;7638;49.760;8.646;2023-06-14T11:57:51;2.57;;;2.37;;
15077;SDS011;7638;49.760;8.646;2023-06-14T12:00:17;2.53;;;2.13;;
15077;SDS011;7638;49.760;8.646;2023-06-14T12:02:51;3.23;;;2.40;;
15077;SDS011;7638;49.760;8.646;2023-06-14T12:05:20;5.00;;;2.40;;
15077;SDS011;7638;49.760;8.646;2023-06-14T12:07:46;5.10;;;2.70;;
15077;SDS011;7638;49.760;8.646;2023-06-14T12:10:13;3.50;;;2.33;;
15077;SDS011;7638;49.760;8.646;2023-06-14T12:12:40;3.37;;;3.07;;
15077;SDS011;7638;49.760;8.646;2023-06-14T12:15:07;5.30;;;2.40;;
15077;SDS011;7638;49.760;8.646;2023-06-14T12:17:34;8.53;;;2.33;;
15077;SDS011;7638;49.760;8.646;2023-06-14T12:20:13;3.73;;;2.33;;
15077;SDS011;7638;49.760;8.646;2023-06-14T12:25:31;2.90;;;2.43;;
15077;SDS011;7638;49.760;8.646;2023-06-14T12:28:04;5.00;;;2.27;;
15077;SDS011;7638;49.760;8.646;2023-06-14T12:30:31;4.43;;;2.00;;
15077;SDS011;7638;49.760;8.646;2023-06-14T12:32:57;2.40;;;2.20;;
15077;SDS011;7638;49.760;8.646;2023-06-14T12:35:23;2.93;;;2.33;;
15077;SDS011;7638;49.760;8.646;2023-06-14T12:37:49;5.00;;;2.70;;
15077;SDS011;7638;49.760;8.646;2023-06-14T12:40:15;4.27;;;2.20;;
15077;SDS011;7638;49.760;8.646;2023-06-14T12:42:41;6.77;;;2.37;;
15077;SDS011;7638;49.760;8.646;2023-06-14T12:45:07;5.10;;;2.00;;
15077;SDS011;7638;49.760;8.646;2023-06-14T12:47:33;5.43;;;2.37;;
15077;SDS011;7638;49.760;8.646;2023-06-14T12:50:00;2.13;;;1.90;;
15077;SDS011;7638;49.760;8.646;2023-06-14T12:52:26;2.10;;;1.90;;
15077;SDS011;7638;49.760;8.646;2023-06-14T12:54:52;2.10;;;1.90;;
15077;SDS011;7638;49.760;8.646;2023-06-14T12:57:18;2.80;;;2.17;;
15077;SDS011;7638;49.760;8.646;2023-06-14T12:59:44;2.40;;;2.20;;
15077;SDS011;7638;49.760;8.646;2023-06-14T13:02:15;2.53;;;2.20;;
15077;SDS011;7638;49.760;8.646;2023-06-14T13:04:41;10.57;;;1.63;;
15077;SDS011;7638;49.760;8.646;2023-06-14T13:07:08;3.83;;;2.00;;
15077;SDS011;7638;49.760;8.646;2023-06-14T13:09:35;1.90;;;1.80;;
15077;SDS011;7638;49.760;8.646;2023-06-14T13:12:01;4.00;;;2.30;;
15077;SDS011;7638;49.760;8.646;2023-06-14T13:14:27;3.50;;;2.33;;
15077;SDS011;7638;49.760;8.646;2023-06-14T13:16:53;5.07;;;2.20;;
15077;SDS011;7638;49.760;8.646;2023-06-14T13:19:20;4.03;;;2.03;;
15077;SDS011;7638;49.760;8.646;2023-06-14T13:21:46;3.50;;;1.80;;
15077;SDS011;7638;49.760;8.646;2023-06-14T13:24:12;9.80;;;2.20;;
15077;SDS011;7638;49.760;8.646;2023-06-14T13:26:38;2.53;;;1.87;;
15077;SDS011;7638;49.760;8.646;2023-06-14T13:29:04;5.17;;;2.33;;
15077;SDS011;7638;49.760;8.646;2023-06-14T13:31:30;3.23;;;2.23;;
15077;SDS011;7638;49.760;8.646;2023-06-14T13:33:56;2.10;;;1.90;;
15077;SDS011;7638;49.760;8.646;2023-06-14T13:36:22;2.30;;;2.10;;
15077;SDS011;7638;49.760;8.646;2023-06-14T13:38:48;3.80;;;2.47;;
15077;SDS011;7638;49.760;8.646;2023-06-14T13:41:16;3.30;;;2.13;;
15077;SDS011;7638;49.760;8.646;2023-06-14T13:43:42;2.47;;;1.97;;
15077;SDS011;7638;49.760;8.646;2023-06-14T13:46:08;3.47;;;2.50;;
15077;SDS011;7638;49.760;8.646;2023-06-14T13:48:34;6.57;;;2.53;;
15077;SDS011;7638;49.760;8.646;2023-06-14T13:51:00;4.30;;;2.07;;
15077;SDS011;7638;49.760;8.646;2023-06-14T13:53:28;4.03;;;2.13;;
15077;SDS011;7638;49.760;8.646;2023-06-14T13:55:55;2.90;;;2.33;;
15077;SDS011;7638;49.760;8.646;2023-06-14T13:58:21;3.20;;;2.20;;
15077;SDS011;7638;49.760;8.646;2023-06-14T14:00:49;2.53;;;2.27;;
15077;SDS011;7638;49.760;8.646;2023-06-14T14:03:15;6.13;;;2.20;;
15077;SDS011;7638;49.760;8.646;2023-06-14T14:05:41;7.33;;;2.37;;
15077;SDS011;7638;49.760;8.646;2023-06-14T14:08:07;2.87;;;2.10;;
15077;SDS011;7638;49.760;8.646;2023-06-14T14:10:33;2.93;;;1.90;;
15077;SDS011;7638;49.760;8.646;2023-06-14T14:12:59;6.47;;;2.33;;
15077;SDS011;7638;49.760;8.646;2023-06-14T14:15:26;2.50;;;2.13;;
15077;SDS011;7638;49.760;8.646;2023-06-14T14:17:53;3.40;;;2.47;;
15077;SDS011;7638;49.760;8.646;2023-06-14T14:20:22;2.67;;;2.47;;
15077;SDS011;7638;49.760;8.646;2023-06-14T14:22:48;2.30;;;2.10;;
15077;SDS011;7638;49.760;8.646;2023-06-14T14:25:14;2.47;;;1.93;;
15077;SDS011;7638;49.760;8.646;2023-06-14T14:27:40;2.87;;;2.47;;
15077;SDS011;7638;49.760;8.646;2023-06-14T14:30:07;3.67;;;2.43;;
15077;SDS011;7638;49.760;8.646;2023-06-14T14:32:33;5.17;;;2.33;;
15077;SDS011;7638;49.760;8.646;2023-06-14T14:34:59;2.77;;;2.20;;
15077;SDS011;7638;49.760;8.646;2023-06-14T14:37:25;5.87;;;2.60;;
15077;SDS011;7638;49.760;8.646;2023-06-14T14:39:51;2.40;;;2.20;;
15077;SDS011;7638;49.760;8.646;2023-06-14T14:42:17;4.53;;;1.93;;
15077;SDS011;7638;49.760;8.646;2023-06-14T14:44:43;3.00;;;2.07;;
15077;SDS011;7638;49.760;8.646;2023-06-14T14:47:09;3.30;;;2.10;;
15077;SDS011;7638;49.760;8.646;2023-06-14T14:49:35;3.00;;;2.20;;
15077;SDS011;7638;49.760;8.646;2023-06-14T14:52:01;4.10;;;1.80;;
15077;SDS011;7638;49.760;8.646;2023-06-14T14:54:27;4.63;;;2.10;;
15077;SDS011;7638;49.760;8.646;2023-06-14T14:56:54;2.10;;;1.83;;
15077;SDS011;7638;49.760;8.646;2023-06-14T14:59:20;3.53;;;2.20;;
15077;SDS011;7638;49.760;8.646;2023-06-14T15:01:47;3.57;;;2.03;;
15077;SDS011;7638;49.760;8.646;2023-06-14T15:04:13;5.33;;;2.27;;